Time;durP1;ratioP1;P1;durP2;ratioP2;P2;SDS_P1;SDS_P2;PMS_P1;PMS_P2;Temp;Humidity;BMP_temperature;BMP_pressure;BME280_temperature;BME280_humidity;BME280_pressure;Samples;Min_cycle;Max_cycle;Signal;HPM_P1;HPM_P2
2022/11/08 00:02:28;;;;;;;6.95;1.00;;;;;;;12.57;87.85;100944.75;5037311;28;96573;-31
2022/11/08 00:04:54;;;;;;;4.82;1.05;;;;;;;12.55;88.05;100949.41;5036380;27;99284;-33
2022/11/08 00:15:37;;;;;;;6.85;1.30;;;;;;;12.48;88.30;100935.34;5035890;28;96542;-31
2022/11/08 00:18:07;;;;;;;5.35;0.98;;;;;;;12.48;88.38;100938.06;5034850;28;100778;-32
2022/11/08 00:20:33;;;;;;;2.22;0.85;;;;;;;12.45;88.16;100932.00;5034914;28;96766;-33
2022/11/08 00:22:58;;;;;;;4.50;1.25;;;;;;;12.44;88.24;100939.28;5034984;28;96698;-31
2022/11/08 00:25:23;;;;;;;8.32;1.50;;;;;;;12.43;88.10;100933.94;5036251;27;97880;-32
2022/11/08 00:27:49;;;;;;;2.97;1.00;;;;;;;12.39;88.56;100926.97;5036224;27;97834;-31
2022/11/08 00:30:14;;;;;;;1.20;0.82;;;;;;;12.39;88.41;100930.53;5036556;27;96524;-32
2022/11/08 00:32:40;;;;;;;2.60;1.00;;;;;;;12.40;88.50;100935.03;5036660;27;96859;-31
2022/11/08 00:35:05;;;;;;;5.30;1.08;;;;;;;12.40;88.43;100926.00;5036111;27;97433;-31
2022/11/08 00:37:31;;;;;;;2.00;0.80;;;;;;;12.36;88.84;100927.19;5034450;28;100750;-32
2022/11/08 00:39:56;;;;;;;3.35;0.65;;;;;;;12.36;88.50;100932.63;5035903;27;96695;-32
2022/11/08 00:42:21;;;;;;;4.28;1.38;;;;;;;12.36;88.61;100924.47;5036097;27;96854;-32
2022/11/08 00:44:47;;;;;;;2.47;1.13;;;;;;;12.32;88.73;100913.81;5035974;27;97287;-31
2022/11/08 00:47:12;;;;;;;4.88;1.33;;;;;;;12.32;88.73;100926.50;5035743;27;99225;-31
2022/11/08 00:49:38;;;;;;;2.97;0.75;;;;;;;12.30;88.73;100915.75;5036389;27;96431;-31
2022/11/08 00:52:03;;;;;;;3.88;0.93;;;;;;;12.30;88.66;100918.47;5036367;27;96821;-31
2022/11/08 00:54:28;;;;;;;5.57;1.23;;;;;;;12.26;89.05;100910.66;5035622;27;99283;-31
2022/11/08 00:56:54;;;;;;;1.85;0.93;;;;;;;12.25;88.96;100906.16;5036135;27;97740;-33
2022/11/08 00:59:19;;;;;;;3.83;1.20;;;;;;;12.24;88.50;100905.31;5035617;28;96695;-34
2022/11/08 01:01:45;;;;;;;8.25;1.38;;;;;;;12.23;88.76;100900.00;5036465;27;96784;-33
2022/11/08 01:04:13;;;;;;;5.95;0.93;;;;;;;12.22;88.80;100914.53;5033637;28;100851;-31
2022/11/08 01:06:39;;;;;;;0.95;0.57;;;;;;;12.22;88.80;100909.09;5033991;28;101172;-31
2022/11/08 01:09:05;;;;;;;4.78;1.10;;;;;;;12.19;88.87;100896.59;5034448;28;96580;-31
2022/11/08 01:11:31;;;;;;;2.67;1.15;;;;;;;12.19;88.77;100895.75;5034309;28;96820;-32
2022/11/08 01:13:58;;;;;;;3.13;0.82;;;;;;;12.18;88.71;100897.59;5034074;28;100937;-31
2022/11/08 01:16:26;;;;;;;4.82;0.85;;;;;;;12.18;88.65;100894.88;5033606;28;100733;-31
2022/11/08 01:18:54;;;;;;;1.52;0.50;;;;;;;12.17;88.98;100884.09;5033538;28;96914;-33
2022/11/08 01:21:20;;;;;;;4.00;0.93;;;;;;;12.16;88.65;100883.25;5034705;28;96890;-32
2022/11/08 01:23:46;;;;;;;6.22;1.17;;;;;;;12.15;88.77;100878.75;5033827;28;100922;-31
2022/11/08 01:26:15;;;;;;;1.83;0.57;;;;;;;12.14;88.66;100868.03;5035526;27;97263;-32
2022/11/08 01:28:41;;;;;;;5.07;0.70;;;;;;;12.10;89.08;100867.34;5032973;28;96525;-31
2022/11/08 01:31:11;;;;;;;3.25;1.02;;;;;;;12.08;88.94;100872.00;5035296;27;96806;-31
2022/11/08 01:33:37;;;;;;;1.40;1.00;;;;;;;12.03;88.98;100871.44;5033802;28;100759;-31
2022/11/08 01:36:05;;;;;;;0.95;0.63;;;;;;;12.01;88.96;100873.41;5035211;27;97608;-32
2022/11/08 01:38:31;;;;;;;6.25;0.98;;;;;;;11.97;89.15;100861.03;5033941;28;96756;-31
2022/11/08 01:40:57;;;;;;;5.68;1.30;;;;;;;11.93;89.42;100857.63;5035591;28;96809;-30
2022/11/08 01:43:30;;;;;;;2.42;1.10;;;;;;;11.93;89.12;100851.34;5034539;28;117254;-31
2022/11/08 01:46:18;;;;;;;6.72;1.30;;;;;;;11.90;89.26;100849.69;5035548;28;97932;-31
2022/11/08 01:48:47;;;;;;;5.20;1.30;;;;;;;11.89;89.35;100845.22;5026612;28;96931;-32
2022/11/08 01:51:16;;;;;;;4.30;0.95;;;;;;;11.84;89.48;100834.66;5035129;27;96952;-31
2022/11/08 01:53:43;;;;;;;5.88;0.90;;;;;;;11.82;89.56;100835.72;5033070;28;100883;-31
2022/11/08 01:56:10;;;;;;;7.85;1.00;;;;;;;11.80;89.61;100835.84;5033412;28;101650;-31
2022/11/08 01:58:37;;;;;;;3.15;1.15;;;;;;;11.79;89.59;100841.38;5033620;28;96886;-32
2022/11/08 02:01:02;;;;;;;2.42;0.90;;;;;;;11.78;89.53;100829.66;5033605;28;96696;-31
2022/11/08 02:03:32;;;;;;;2.33;0.85;;;;;;;11.80;89.24;100825.00;5033251;28;100973;-32
2022/11/08 02:05:59;;;;;;;3.85;1.08;;;;;;;11.80;89.34;100819.56;5033139;28;100794;-31
2022/11/08 02:08:33;;;;;;;2.08;1.02;;;;;;;11.78;89.50;100824.22;5035102;27;96663;-31
2022/11/08 02:10:59;;;;;;;3.75;1.23;;;;;;;11.77;89.36;100819.75;5033808;28;96727;-31
2022/11/08 02:13:27;;;;;;;1.83;0.82;;;;;;;11.78;89.38;100823.34;5033188;28;100958;-31
2022/11/08 02:15:52;;;;;;;1.23;0.57;;;;;;;11.75;89.63;100816.28;5033027;28;101094;-31
2022/11/08 02:18:20;;;;;;;4.13;0.63;;;;;;;11.75;89.32;100809.97;5034109;27;96639;-31
2022/11/08 02:21:23;;;;;;;1.25;0.73;;;;;;;11.75;89.30;100807.25;5033602;28;96878;-33
2022/11/08 02:23:54;;;;;;;2.33;1.05;;;;;;;11.72;89.54;100805.63;5034485;28;97830;-31
2022/11/08 02:26:27;;;;;;;4.15;1.15;;;;;;;11.71;89.59;100806.59;5033097;28;100772;-31
2022/11/08 02:28:52;;;;;;;5.20;0.70;;;;;;;11.66;89.44;100803.34;5033478;28;96652;-31
2022/11/08 02:31:19;;;;;;;3.75;0.93;;;;;;;11.65;89.62;100804.28;5034764;28;96799;-31
2022/11/08 02:33:45;;;;;;;3.88;1.17;;;;;;;11.62;89.60;100796.38;5032949;28;101566;-31
2022/11/08 02:36:16;;;;;;;8.60;1.48;;;;;;;11.57;89.79;100795.81;5033205;27;101388;-31
2022/11/08 02:38:46;;;;;;;3.58;1.20;;;;;;;11.56;90.10;100802.19;5033275;28;96672;-31
2022/11/08 02:41:12;;;;;;;6.47;1.65;;;;;;;11.53;90.21;100788.84;5035330;27;96687;-32
2022/11/08 02:43:37;;;;;;;5.15;1.40;;;;;;;11.52;89.98;100795.25;5037004;28;111414;-31
2022/11/08 02:46:02;;;;;;;6.10;1.27;;;;;;;11.48;90.23;100786.44;5037781;28;102451;-31
2022/11/08 02:48:28;;;;;;;6.15;1.52;;;;;;;11.46;90.10;100781.13;5037871;27;96553;-31
2022/11/08 02:50:53;;;;;;;1.60;0.93;;;;;;;11.48;90.09;100768.31;5038262;27;96728;-33
2022/11/08 02:53:19;;;;;;;5.72;1.45;;;;;;;11.46;90.24;100770.28;5037814;27;97331;-31
2022/11/08 02:55:45;;;;;;;3.35;0.75;;;;;;;11.45;90.17;100768.53;5036315;28;101405;-32
2022/11/08 02:58:11;;;;;;;1.13;0.55;;;;;;;11.46;89.70;100763.97;5036501;28;96790;-31
2022/11/08 03:00:37;;;;;;;1.00;0.60;;;;;;;11.45;89.89;100754.97;5036431;28;96942;-31
2022/11/08 03:03:03;;;;;;;5.20;1.20;;;;;;;11.49;89.81;100747.50;5036062;28;101389;-32
2022/11/08 03:05:29;;;;;;;5.20;1.00;;;;;;;11.45;90.01;100741.41;5037562;27;97220;-33
2022/11/08 03:07:55;;;;;;;4.75;1.00;;;;;;;11.47;90.14;100744.88;5037285;28;96637;-32
2022/11/08 03:10:22;;;;;;;4.05;1.02;;;;;;;11.51;89.87;100736.53;5037879;27;96758;-31
2022/11/08 03:12:54;;;;;;;5.43;1.15;;;;;;;11.44;89.82;100723.41;5035892;28;100820;-32
2022/11/08 03:15:19;;;;;;;;;;;;;;;11.43;89.84;100718.94;5036147;28;100946;-32
2022/11/08 03:17:45;;;;;;;1.23;0.60;;;;;;;11.43;90.02;100716.22;5037317;28;99101;-31
2022/11/08 03:20:10;;;;;;;8.57;1.33;;;;;;;11.41;89.86;100706.44;5037055;28;96835;-31
2022/11/08 03:22:36;;;;;;;9.02;1.10;;;;;;;11.41;89.75;100706.44;5037158;27;99575;-33
2022/11/08 03:25:01;;;;;;;3.03;1.08;;;;;;;11.37;90.09;100711.22;5036954;28;122141;-32
2022/11/08 03:27:26;;;;;;;1.10;0.70;;;;;;;11.38;90.13;100710.22;5036787;28;110482;-32
2022/11/08 03:29:51;;;;;;;1.25;0.85;;;;;;;11.35;90.17;100701.47;5037360;27;96844;-32
2022/11/08 03:32:17;;;;;;;2.90;1.25;;;;;;;11.33;90.31;100690.69;5035915;27;107134;-30
2022/11/08 03:34:42;;;;;;;3.30;0.82;;;;;;;11.32;90.28;100679.94;5036905;27;99123;-32
2022/11/08 03:37:09;;;;;;;1.77;0.80;;;;;;;11.34;90.02;100678.88;5037420;27;96479;-31
2022/11/08 03:39:35;;;;;;;1.00;0.55;;;;;;;11.33;90.19;100671.72;5037375;27;96721;-31
2022/11/08 03:42:02;;;;;;;3.80;1.23;;;;;;;11.34;90.21;100668.03;5037002;27;97386;-32
2022/11/08 03:44:28;;;;;;;4.55;1.20;;;;;;;11.29;90.14;100670.19;5035350;28;100934;-31
2022/11/08 03:46:53;;;;;;;2.35;1.08;;;;;;;11.27;90.25;100656.75;5035642;28;96551;-33
2022/11/08 03:49:19;;;;;;;4.70;1.38;;;;;;;11.26;90.18;100660.41;5037863;28;96650;-32
2022/11/08 03:51:44;;;;;;;2.22;0.93;;;;;;;11.23;90.48;100660.63;5035538;28;120365;-31
2022/11/08 03:54:09;;;;;;;4.20;1.05;;;;;;;11.23;90.56;100662.47;5036115;27;120235;-33
2022/11/08 03:56:34;;;;;;;3.47;0.90;;;;;;;11.22;90.38;100649.88;5036722;27;96485;-31
2022/11/08 03:59:00;;;;;;;1.17;0.60;;;;;;;11.22;90.32;100658.88;5036549;28;106864;-31
2022/11/08 04:01:25;;;;;;;2.08;0.95;;;;;;;11.22;90.44;100656.16;5036332;27;99393;-33
2022/11/08 04:03:50;;;;;;;2.70;0.95;;;;;;;11.20;90.34;100650.00;5036459;27;99524;-30
2022/11/08 04:06:16;;;;;;;2.15;0.52;;;;;;;11.21;90.05;100645.44;5036590;27;99490;-31
2022/11/08 04:08:41;;;;;;;1.83;1.00;;;;;;;11.20;90.26;100649.09;5036618;28;99548;-32
2022/11/08 04:16:34;;;;;;;3.28;0.82;;;;;;;11.24;89.71;100639.78;5036897;28;96923;-31
2022/11/08 04:21:46;;;;;;;1.77;0.80;;;;;;;11.23;89.33;100628.09;5036214;28;97108;-32
2022/11/08 04:24:12;;;;;;;0.98;0.60;;;;;;;11.23;89.18;100630.81;5034807;28;100784;-32
2022/11/08 04:26:39;;;;;;;0.82;0.47;;;;;;;11.24;89.13;100626.25;5036397;27;96573;-31
2022/11/08 04:29:04;;;;;;;2.78;0.65;;;;;;;11.24;88.89;100621.69;5036637;28;96742;-31
2022/11/08 04:31:30;;;;;;;3.63;0.88;;;;;;;11.23;88.77;100617.25;5036260;27;98394;-31
2022/11/08 04:33:55;;;;;;;2.60;1.13;;;;;;;11.20;88.88;100614.75;5035495;28;116703;-32
2022/11/08 04:36:20;;;;;;;3.40;1.00;;;;;;;11.21;88.92;100615.63;5035991;28;103156;-31
2022/11/08 04:38:50;;;;;;;0.57;0.40;;;;;;;11.21;88.74;100607.47;5036818;28;96827;-31
2022/11/08 04:41:17;;;;;;;1.70;0.82;;;;;;;11.20;88.66;100600.31;5034637;28;101416;-32
2022/11/08 04:43:43;;;;;;;1.17;0.80;;;;;;;11.21;88.62;100612.91;5034611;28;98971;-31
2022/11/08 04:46:11;;;;;;;1.58;0.90;;;;;;;11.20;88.80;100601.19;5035929;27;96504;-32
2022/11/08 04:48:37;;;;;;;1.65;0.80;;;;;;;11.21;88.43;100597.50;5036063;27;96804;-32
2022/11/08 04:51:05;;;;;;;1.60;0.90;;;;;;;11.23;87.89;100600.97;5035867;27;98168;-31
2022/11/08 04:53:31;;;;;;;1.10;0.75;;;;;;;11.25;88.15;100599.03;5034402;27;100721;-31
2022/11/08 04:56:05;;;;;;;3.78;0.90;;;;;;;11.23;87.86;100586.56;5034743;28;96490;-32
2022/11/08 04:58:35;;;;;;;1.88;0.63;;;;;;;11.22;87.74;100582.94;5036410;27;96503;-32
2022/11/08 05:01:03;;;;;;;0.65;0.43;;;;;;;11.23;87.62;100578.44;5034144;28;100874;-31
2022/11/08 05:03:29;;;;;;;0.77;0.40;;;;;;;11.25;87.64;100582.75;5034944;27;98793;-32
2022/11/08 05:05:54;;;;;;;3.03;1.05;;;;;;;11.23;87.34;100571.16;5034572;28;96593;-31
2022/11/08 05:08:20;;;;;;;5.72;0.73;;;;;;;11.24;87.45;100578.31;5035884;27;96974;-31
2022/11/08 05:10:45;;;;;;;3.38;1.00;;;;;;;11.23;87.04;100567.59;5035067;27;98388;-34
2022/11/08 05:13:10;;;;;;;2.17;0.88;;;;;;;11.24;86.81;100577.44;5035207;27;106198;-31
2022/11/08 05:15:35;;;;;;;2.40;1.05;;;;;;;11.27;86.96;100575.41;5035681;27;96850;-32
2022/11/08 05:18:01;;;;;;;1.33;0.65;;;;;;;11.29;86.89;100569.00;5035675;27;96819;-31
2022/11/08 05:23:25;;;;;;;4.75;1.05;;;;;;;11.29;86.88;100560.84;5033121;28;97060;-32
2022/11/08 05:25:54;;;;;;;1.98;0.85;;;;;;;11.29;86.49;100555.44;5035536;27;96529;-31
2022/11/08 05:28:21;;;;;;;1.38;1.08;;;;;;;11.30;86.16;100554.44;5034621;28;96900;-31
2022/11/08 05:30:54;;;;;;;2.25;1.17;;;;;;;11.31;85.93;100557.06;5033771;28;100910;-30
2022/11/08 05:33:19;;;;;;;1.35;0.77;;;;;;;11.32;86.15;100550.69;5033483;28;100965;-31
2022/11/08 05:35:45;;;;;;;2.03;1.08;;;;;;;11.30;86.30;100546.31;5034821;27;96671;-31
2022/11/08 05:38:10;;;;;;;1.02;0.77;;;;;;;11.26;85.90;100541.09;5035411;27;96792;-34
2022/11/08 05:40:35;;;;;;;1.45;0.95;;;;;;;11.27;85.91;100544.69;5035303;27;97912;-31
2022/11/08 05:43:01;;;;;;;1.40;0.90;;;;;;;11.26;85.71;100543.81;5034739;27;112050;-31
2022/11/08 05:45:26;;;;;;;1.52;0.80;;;;;;;11.25;85.85;100538.53;5035499;27;96768;-31
2022/11/08 05:47:51;;;;;;;2.88;0.80;;;;;;;11.25;85.49;100541.22;5035188;28;96774;-33
2022/11/08 05:50:17;;;;;;;2.42;0.70;;;;;;;11.24;85.86;100542.19;5034465;28;121236;-31
2022/11/08 05:52:42;;;;;;;1.75;0.80;;;;;;;11.25;85.48;100544.81;5035249;27;97734;-32
2022/11/08 05:55:08;;;;;;;4.55;0.82;;;;;;;11.24;85.13;100532.22;5034969;28;107491;-31
2022/11/08 05:57:33;;;;;;;1.98;1.10;;;;;;;11.22;85.61;100528.72;5034987;27;96842;-31
2022/11/08 05:59:59;;;;;;;2.03;0.77;;;;;;;11.23;85.22;100530.47;5034261;27;97892;-31
2022/11/08 06:02:24;;;;;;;3.15;0.90;;;;;;;11.21;85.22;100527.00;5034447;27;98959;-32
2022/11/08 06:04:49;;;;;;;3.17;0.70;;;;;;;11.21;84.28;100528.84;5035264;28;96490;-32
2022/11/08 06:07:14;;;;;;;2.13;1.02;;;;;;;11.21;84.42;100534.28;5034363;28;109740;-31
2022/11/08 06:09:40;;;;;;;0.98;0.73;;;;;;;11.21;84.89;100529.72;5034125;28;114730;-31
2022/11/08 06:12:05;;;;;;;1.73;0.80;;;;;;;11.23;84.80;100524.19;5034653;27;97747;-31
2022/11/08 06:14:31;;;;;;;1.27;0.75;;;;;;;11.25;84.31;100511.41;5034854;28;96987;-32
2022/11/08 06:16:56;;;;;;;2.72;0.80;;;;;;;11.27;83.38;100512.16;5034766;27;96867;-31
2022/11/08 06:19:22;;;;;;;5.03;0.90;;;;;;;11.30;83.64;100511.06;5034086;27;97915;-31
2022/11/08 06:21:47;;;;;;;1.70;0.98;;;;;;;11.32;83.65;100507.28;5034648;28;97880;-33
2022/11/08 06:24:14;;;;;;;2.33;0.70;;;;;;;11.35;82.83;100512.50;5032823;28;97861;-31
2022/11/08 06:26:40;;;;;;;1.70;0.90;;;;;;;11.37;83.16;100521.38;5034711;27;96929;-32
2022/11/08 06:29:05;;;;;;;2.58;0.63;;;;;;;11.35;82.30;100509.78;5034306;27;99598;-33
2022/11/08 06:31:30;;;;;;;2.80;1.17;;;;;;;11.38;82.07;100525.81;5033710;28;108185;-32
2022/11/08 06:33:55;;;;;;;1.23;0.73;;;;;;;11.41;82.63;100519.31;5034756;28;96497;-31
2022/11/08 06:36:21;;;;;;;3.47;0.73;;;;;;;11.43;81.34;100512.81;5034321;28;99316;-32
2022/11/08 06:38:46;;;;;;;1.42;0.60;;;;;;;11.43;80.77;100499.25;5034061;27;98782;-31
2022/11/08 06:41:18;;;;;;;1.10;0.55;;;;;;;11.47;80.86;100502.63;5034905;27;97761;-32
2022/11/08 06:43:43;;;;;;;;;;;;;;;11.51;80.65;100516.81;5033605;28;96663;-32
2022/11/08 06:46:08;;;;;;;1.50;0.70;;;;;;;11.50;81.37;100525.94;5034271;28;96738;-32
2022/11/08 06:48:34;;;;;;;4.25;1.42;;;;;;;11.48;81.20;100501.63;5033691;28;97947;-31
2022/11/08 06:51:00;;;;;;;4.78;1.48;;;;;;;11.48;81.05;100501.63;5033570;28;115614;-31
2022/11/08 06:53:26;;;;;;;0.60;0.45;;;;;;;11.50;80.81;100501.53;5033034;28;96639;-32
2022/11/08 06:55:51;;;;;;;0.95;0.63;;;;;;;11.46;80.71;100493.63;5034829;27;96732;-32
2022/11/08 06:58:16;;;;;;;2.78;1.05;;;;;;;11.48;80.94;100496.22;5033845;28;108488;-31
2022/11/08 07:00:42;;;;;;;1.52;0.80;;;;;;;11.44;80.69;100494.69;5033177;27;111941;-31
2022/11/08 07:03:08;;;;;;;1.35;0.50;;;;;;;11.42;80.24;100491.25;5033706;27;109659;-32
2022/11/08 07:05:34;;;;;;;1.15;0.75;;;;;;;11.42;80.42;100497.53;5034841;28;96680;-32
2022/11/08 07:08:00;;;;;;;1.45;0.60;;;;;;;11.42;79.62;100508.38;5032597;28;101008;-31
2022/11/08 07:10:29;;;;;;;6.40;1.00;;;;;;;11.44;80.52;100495.56;5032610;28;101230;-32
2022/11/08 07:13:02;;;;;;;0.40;0.40;;;;;;;11.44;80.17;100503.72;5032169;28;96694;-32
2022/11/08 07:15:28;;;;;;;4.38;1.08;;;;;;;11.41;79.85;100498.47;5032337;28;96818;-32
2022/11/08 07:17:57;;;;;;;2.47;0.98;;;;;;;11.45;80.39;100502.72;5032569;28;100921;-31
2022/11/08 07:20:23;;;;;;;1.55;0.75;;;;;;;11.45;80.04;100491.88;5031900;28;101108;-33
2022/11/08 07:22:48;;;;;;;1.40;0.55;;;;;;;11.44;79.98;100494.69;5034253;27;96607;-32
2022/11/08 07:25:13;;;;;;;6.85;0.93;;;;;;;11.43;80.22;100493.81;5033592;28;103588;-34
2022/11/08 07:27:39;;;;;;;2.50;0.65;;;;;;;11.44;79.90;100494.69;5035115;27;119588;-32
2022/11/08 07:30:05;;;;;;;1.98;0.88;;;;;;;11.44;80.32;100490.16;5037677;27;97880;-31
2022/11/08 07:32:30;;;;;;;1.88;0.77;;;;;;;11.43;79.96;100499.25;5037186;27;96626;-31
2022/11/08 07:34:55;;;;;;;2.90;1.17;;;;;;;11.44;80.53;100509.13;5037162;27;97806;-31
2022/11/08 07:37:20;;;;;;;1.08;0.47;;;;;;;11.45;79.72;100510.84;5036022;27;113372;-31
2022/11/08 07:39:46;;;;;;;1.38;0.47;;;;;;;11.48;80.07;100520.63;5036702;28;111556;-31
2022/11/08 07:42:11;;;;;;;2.65;0.82;;;;;;;11.50;79.79;100513.25;5036987;27;96652;-32
2022/11/08 07:44:36;;;;;;;1.27;0.80;;;;;;;11.47;79.48;100514.34;5037018;28;104612;-33
2022/11/08 07:47:02;;;;;;;1.27;0.70;;;;;;;11.47;79.29;100517.03;5036605;27;99266;-31
2022/11/08 07:49:27;;;;;;;0.80;0.52;;;;;;;11.50;79.14;100513.25;5036941;27;97615;-32
2022/11/08 07:51:52;;;;;;;2.15;0.60;;;;;;;11.53;79.31;100506.72;5036550;28;106343;-31
2022/11/08 07:54:17;;;;;;;1.23;0.68;;;;;;;11.56;79.07;100517.34;5036799;28;110576;-32
2022/11/08 07:56:43;;;;;;;3.53;0.57;;;;;;;11.56;78.90;100518.25;5036608;27;113937;-32
2022/11/08 07:59:08;;;;;;;0.60;0.40;;;;;;;11.58;78.70;100518.97;5036238;27;112988;-31
2022/11/08 08:01:33;;;;;;;1.95;0.82;;;;;;;11.60;79.31;100522.47;5035609;28;106270;-31
2022/11/08 08:03:58;;;;;;;1.30;0.63;;;;;;;11.61;78.79;100509.78;5036743;28;96836;-32
2022/11/08 08:06:25;;;;;;;1.33;0.70;;;;;;;11.65;78.73;100527.56;5036464;28;106792;-32
2022/11/08 08:08:50;;;;;;;4.40;1.08;;;;;;;11.65;78.79;100528.41;5036565;28;97840;-32
2022/11/08 08:11:15;;;;;;;1.27;0.70;;;;;;;11.68;78.67;100521.94;5036615;27;96500;-31
2022/11/08 08:13:41;;;;;;;1.58;0.77;;;;;;;11.70;78.01;100525.38;5036480;27;96957;-32
2022/11/08 08:16:07;;;;;;;3.13;1.08;;;;;;;11.72;77.36;100507.16;5035429;27;116648;-31
2022/11/08 08:18:32;;;;;;;0.50;0.38;;;;;;;11.76;77.49;100522.25;5036441;28;97309;-31
2022/11/08 08:20:59;;;;;;;0.52;0.45;;;;;;;11.78;77.29;100524.84;5036582;27;96516;-31
2022/11/08 08:23:24;;;;;;;0.30;0.30;;;;;;;11.79;77.34;100516.59;5036537;27;96823;-31
2022/11/08 08:25:50;;;;;;;1.65;0.70;;;;;;;11.82;77.81;100507.34;5035931;27;97876;-33
2022/11/08 08:28:15;;;;;;;1.67;1.00;;;;;;;11.83;77.43;100503.69;5036048;27;97862;-32
2022/11/08 08:30:40;;;;;;;3.08;0.90;;;;;;;11.87;77.30;100516.94;5036689;27;96652;-31
2022/11/08 08:33:09;;;;;;;0.47;0.47;;;;;;;11.87;76.74;100514.22;5036358;27;96812;-31
2022/11/08 08:35:35;;;;;;;1.10;0.77;;;;;;;11.89;76.87;100503.25;5034644;28;100759;-31
2022/11/08 08:38:02;;;;;;;1.52;0.90;;;;;;;11.93;76.94;100501.19;5036042;27;98040;-31
2022/11/08 08:40:28;;;;;;;4.50;0.60;;;;;;;11.93;76.83;100504.75;5035106;28;96628;-32
2022/11/08 08:42:53;;;;;;;1.23;0.95;;;;;;;11.95;77.25;100497.38;5036704;27;96941;-33
2022/11/08 08:45:19;;;;;;;3.97;0.88;;;;;;;11.95;76.93;100505.53;5034564;28;100948;-32
2022/11/08 08:47:49;;;;;;;3.05;0.70;;;;;;;11.94;76.99;100502.91;5036093;27;97781;-31
2022/11/08 08:50:15;;;;;;;2.47;0.68;;;;;;;11.93;77.14;100495.75;5034414;28;96544;-31
2022/11/08 08:52:40;;;;;;;3.63;0.88;;;;;;;11.97;76.89;100491.84;5036236;27;96850;-32
2022/11/08 08:55:06;;;;;;;0.80;0.60;;;;;;;11.99;77.46;100492.59;5034604;28;99176;-32
2022/11/08 08:57:32;;;;;;;2.53;0.70;;;;;;;12.02;77.18;100501.38;5035840;27;97778;-31
2022/11/08 08:59:58;;;;;;;1.23;0.43;;;;;;;12.02;76.44;100501.38;5035983;27;96869;-32
2022/11/08 09:02:23;;;;;;;1.90;0.90;;;;;;;12.03;76.88;100503.09;5036224;28;96912;-31
2022/11/08 09:04:48;;;;;;;1.25;0.75;;;;;;;12.05;77.02;100513.88;5035458;27;99353;-31
2022/11/08 09:07:14;;;;;;;3.50;1.38;;;;;;;12.06;77.10;100515.59;5035559;28;115183;-32
2022/11/08 09:09:39;;;;;;;2.05;0.75;;;;;;;12.10;76.92;100519.81;5035230;28;110122;-31
2022/11/08 09:12:04;;;;;;;1.05;0.70;;;;;;;12.16;76.90;100523.94;5035739;27;96827;-32
2022/11/08 09:14:30;;;;;;;0.70;0.45;;;;;;;12.17;76.76;100515.66;5035073;28;97960;-31
2022/11/08 09:16:55;;;;;;;1.20;0.75;;;;;;;12.22;75.61;100520.75;5034674;28;118623;-32
2022/11/08 09:19:20;;;;;;;1.15;0.80;;;;;;;12.26;76.67;100525.84;5035552;27;96748;-31
2022/11/08 09:21:46;;;;;;;2.08;0.82;;;;;;;12.26;75.57;100515.00;5035565;27;96954;-32
2022/11/08 09:24:11;;;;;;;1.45;0.60;;;;;;;12.34;76.48;100522.56;5034916;27;118996;-30
2022/11/08 09:26:36;;;;;;;1.25;0.77;;;;;;;12.33;75.86;100510.84;5035008;27;98776;-31
2022/11/08 09:29:01;;;;;;;1.75;0.93;;;;;;;12.35;75.03;100504.41;5035066;28;106657;-31
2022/11/08 09:31:27;;;;;;;4.88;1.23;;;;;;;12.36;75.87;100504.31;5035786;28;96980;-31
2022/11/08 09:33:52;;;;;;;2.65;0.90;;;;;;;12.36;76.31;100500.75;5035320;27;99950;-32
2022/11/08 09:36:18;;;;;;;2.60;0.90;;;;;;;12.37;76.36;100516.03;5035062;28;99244;-31
2022/11/08 09:38:43;;;;;;;1.52;0.93;;;;;;;12.36;75.94;100514.31;5034988;27;96714;-32
2022/11/08 09:41:17;;;;;;;0.82;0.75;;;;;;;12.38;75.93;100509.66;5034908;28;98250;-31
2022/11/08 09:43:57;;;;;;;2.40;1.10;;;;;;;12.38;75.71;100515.94;5035004;28;99268;-31
2022/11/08 09:46:47;;;;;;;3.22;1.15;;;;;;;12.40;76.07;100508.53;5034910;27;99158;-33
2022/11/08 09:49:38;;;;;;;1.70;0.85;;;;;;;12.40;75.94;100505.81;5034918;27;96623;-31
2022/11/08 09:52:04;;;;;;;0.80;0.43;;;;;;;12.43;76.29;100512.88;5034534;28;96848;-31
2022/11/08 09:54:44;;;;;;;1.65;0.63;;;;;;;12.42;75.72;100512.03;5033422;28;100874;-31
2022/11/08 09:57:22;;;;;;;1.35;0.70;;;;;;;12.42;75.55;100508.41;5033994;28;101024;-31
2022/11/08 10:00:02;;;;;;;4.03;0.90;;;;;;;12.43;76.03;100504.72;5034752;28;96691;-30
2022/11/08 10:02:28;;;;;;;1.45;0.65;;;;;;;12.43;76.27;100511.03;5033857;28;96802;-32
2022/11/08 10:04:57;;;;;;;2.95;1.00;;;;;;;12.43;75.98;100508.31;5034368;28;98163;-31
2022/11/08 10:07:30;;;;;;;2.40;0.88;;;;;;;12.46;76.23;100510.78;5034592;27;99479;-32
2022/11/08 10:10:16;;;;;;;5.35;1.00;;;;;;;12.44;75.80;100506.44;5033647;27;96531;-31
2022/11/08 10:13:00;;;;;;;0.93;0.65;;;;;;;12.45;75.70;100510.91;5033597;28;96734;-31
2022/11/08 10:15:46;;;;;;;0.60;0.55;;;;;;;12.48;75.80;100513.41;5032994;28;101118;-31
2022/11/08 10:18:43;;;;;;;2.33;1.08;;;;;;;12.50;76.25;100516.88;5034754;27;98021;-31
2022/11/08 10:21:41;;;;;;;7.22;1.13;;;;;;;12.50;75.51;100500.56;5033955;28;96584;-31
2022/11/08 10:24:24;;;;;;;3.08;0.43;;;;;;;12.54;75.03;100508.38;5035221;28;96997;-31
2022/11/08 10:26:54;;;;;;;2.10;0.90;;;;;;;12.58;75.74;100502.69;5033201;28;101009;-33
2022/11/08 10:29:38;;;;;;;3.60;1.15;;;;;;;12.65;75.96;100498.53;5032990;28;101267;-31
2022/11/08 10:32:18;;;;;;;3.55;0.93;;;;;;;12.67;74.57;100505.59;5032794;28;96573;-31
2022/11/08 10:35:02;;;;;;;4.07;1.10;;;;;;;12.76;75.11;100498.59;5035070;27;96708;-31
2022/11/08 10:37:30;;;;;;;1.88;0.80;;;;;;;12.78;74.79;100498.50;5034395;28;97978;-32
2022/11/08 10:40:02;;;;;;;2.70;1.05;;;;;;;12.84;74.88;100507.00;5032755;28;100983;-31
2022/11/08 10:42:37;;;;;;;8.90;1.15;;;;;;;12.87;74.61;100503.19;5033119;28;96580;-32
2022/11/08 10:45:03;;;;;;;2.28;1.02;;;;;;;12.92;75.08;100504.59;5033171;28;96835;-31
2022/11/08 10:47:31;;;;;;;2.40;1.20;;;;;;;12.97;74.99;100504.25;5034145;27;99174;-31
2022/11/08 10:49:57;;;;;;;2.72;0.55;;;;;;;13.05;75.37;100509.06;5032974;28;100709;-31
2022/11/08 10:52:44;;;;;;;2.40;0.93;;;;;;;13.12;74.88;100500.31;5034461;28;96701;-31
2022/11/08 10:55:26;;;;;;;1.95;0.93;;;;;;;13.14;73.91;100495.63;5034238;28;96938;-31
2022/11/08 10:57:52;;;;;;;1.42;0.50;;;;;;;13.20;74.25;100494.25;5032459;28;100995;-31
2022/11/08 11:00:20;;;;;;;0.57;0.57;;;;;;;13.26;74.15;100506.53;5033374;27;101588;-31
2022/11/08 11:02:53;;;;;;;2.28;1.13;;;;;;;13.33;74.26;100505.97;5035712;28;96552;-32
2022/11/08 11:05:25;;;;;;;2.47;0.80;;;;;;;13.38;74.12;100497.44;5036503;28;96963;-32
2022/11/08 11:08:07;;;;;;;1.70;0.60;;;;;;;13.54;74.00;100491.66;5036122;28;100951;-31
2022/11/08 11:10:34;;;;;;;3.33;0.77;;;;;;;13.69;73.72;100489.56;5037255;28;98913;-32
2022/11/08 11:13:26;;;;;;;1.55;0.82;;;;;;;13.81;72.21;100483.13;5037826;27;96525;-31
2022/11/08 11:15:54;;;;;;;4.65;1.27;;;;;;;13.81;72.94;100489.41;5037856;27;96716;-32
2022/11/08 11:18:29;;;;;;;2.88;1.25;;;;;;;13.79;73.35;100487.81;5036798;27;97476;-32
2022/11/08 11:21:09;;;;;;;2.17;1.05;;;;;;;13.79;73.52;100490.53;5035897;28;101035;-32
2022/11/08 11:23:42;;;;;;;1.77;0.80;;;;;;;13.86;73.08;100488.19;5035727;28;96598;-32
2022/11/08 11:26:37;;;;;;;1.58;0.90;;;;;;;13.87;73.41;100487.19;5036084;28;96699;-32
2022/11/08 11:29:03;;;;;;;1.63;0.90;;;;;;;14.05;72.42;100487.56;5037504;27;97926;-33
2022/11/08 11:31:33;;;;;;;1.33;0.75;;;;;;;14.22;72.78;100482.44;5037085;28;97833;-34
2022/11/08 11:34:10;;;;;;;2.33;1.02;;;;;;;14.34;72.44;100474.25;5036099;28;96768;-31
2022/11/08 11:36:36;;;;;;;0.85;0.65;;;;;;;14.44;71.43;100475.19;5036060;28;96755;-31
2022/11/08 11:39:07;;;;;;;3.05;1.10;;;;;;;14.57;71.26;100473.22;5035483;28;100996;-31
2022/11/08 11:41:40;;;;;;;2.83;0.75;;;;;;;14.65;71.68;100476.13;5036133;28;100793;-32
2022/11/08 11:44:32;;;;;;;1.90;0.98;;;;;;;14.69;69.89;100468.59;5035641;27;96794;-31
2022/11/08 11:47:08;;;;;;;2.40;1.00;;;;;;;14.82;70.75;100473.84;5035794;28;96744;-33
2022/11/08 11:49:34;;;;;;;1.95;0.88;;;;;;;14.96;69.82;100472.66;5035122;28;100846;-31